createdAt,value
2019-05-17T00:04:56.244Z,13.40
2019-05-17T00:10:02.635Z,14.70
2019-05-17T00:15:08.710Z,17.50
2019-05-17T00:20:17.059Z,14.90
2019-05-17T00:25:22.152Z,13.47
2019-05-17T00:30:28.957Z,14.77
2019-05-17T00:35:34.661Z,12.13
2019-05-17T00:40:40.337Z,13.47
2019-05-17T00:45:46.801Z,14.93
2019-05-17T00:50:54.380Z,13.33
2019-05-17T00:56:02.956Z,14.23
2019-05-17T01:01:08.722Z,14.20
2019-05-17T01:06:16.775Z,19.93
2019-05-17T01:11:21.778Z,15.03
2019-05-17T01:16:27.654Z,14.13
2019-05-17T01:21:33.356Z,14.90
2019-05-17T01:26:39.029Z,15.83
2019-05-17T01:31:46.527Z,14.57
2019-05-17T01:36:52.411Z,18.67
2019-05-17T01:41:58.134Z,19.83
2019-05-17T01:47:04.418Z,19.40
2019-05-17T01:52:10.106Z,18.07
2019-05-17T01:57:16.843Z,22.87
2019-05-17T02:02:27.155Z,19.50
2019-05-17T02:07:32.966Z,19.80
2019-05-17T02:12:38.664Z,20.23
2019-05-17T02:17:46.622Z,38.40
2019-05-17T02:22:51.896Z,28.93
2019-05-17T02:27:57.684Z,37.63
2019-05-17T02:33:04.171Z,48.70
2019-05-17T02:38:13.037Z,31.67
2019-05-17T02:43:17.550Z,26.57
2019-05-17T02:48:23.772Z,25.23
2019-05-17T02:53:29.477Z,22.73
2019-05-17T02:58:35.218Z,22.90
2019-05-17T03:03:43.667Z,26.63
2019-05-17T03:08:48.395Z,24.60
2019-05-17T03:13:54.107Z,27.30
2019-05-17T03:18:59.803Z,30.90
2019-05-17T03:24:06.521Z,26.30
2019-05-17T03:29:13.608Z,28.87
2019-05-17T03:34:26.101Z,29.20
2019-05-17T03:39:28.751Z,33.40
2019-05-17T03:44:34.439Z,35.57
2019-05-17T03:49:43.385Z,33.83
2019-05-17T03:54:47.578Z,35.07
2019-05-17T03:59:53.288Z,28.43
2019-05-17T04:04:59.017Z,32.73
2019-05-17T04:10:08.033Z,32.83
2019-05-17T04:15:14.432Z,34.73
2019-05-17T04:20:22.364Z,38.70
2019-05-17T04:25:27.844Z,39.00
2019-05-17T04:30:33.527Z,34.37
2019-05-17T04:35:39.322Z,38.80
2019-05-17T04:40:45.222Z,35.60
2019-05-17T04:45:53.545Z,40.30
2019-05-17T04:50:58.320Z,45.10
2019-05-17T04:56:04.493Z,55.57
2019-05-17T05:01:12.899Z,43.00
2019-05-17T05:06:17.670Z,51.03
2019-05-17T05:11:23.547Z,58.63
2019-05-17T05:16:31.845Z,53.60
2019-05-17T05:21:36.666Z,55.73
2019-05-17T05:26:42.769Z,42.97
2019-05-17T05:31:48.551Z,42.83
2019-05-17T05:36:54.323Z,40.77
2019-05-17T05:42:08.054Z,42.17
2019-05-17T05:47:07.362Z,39.13
2019-05-17T05:52:13.045Z,42.57
2019-05-17T05:57:18.674Z,43.20
2019-05-17T06:02:24.364Z,30.77
2019-05-17T06:07:32.123Z,29.83
2019-05-17T06:12:37.519Z,31.03
2019-05-17T06:17:43.284Z,31.43
2019-05-17T06:22:48.980Z,33.23
2019-05-17T06:27:54.679Z,31.73
2019-05-17T06:33:02.470Z,35.60
2019-05-17T06:38:07.750Z,35.53
2019-05-17T06:43:13.478Z,38.33
2019-05-17T06:48:19.270Z,38.60
2019-05-17T06:53:24.985Z,32.57
2019-05-17T06:58:31.736Z,31.47
2019-05-17T07:03:37.422Z,26.87
2019-05-17T07:08:43.244Z,24.17
2019-05-17T07:13:49.596Z,28.93
2019-05-17T07:18:55.437Z,24.43
2019-05-17T07:24:01.122Z,23.57
2019-05-17T07:29:06.785Z,21.03
2019-05-17T07:34:13.575Z,24.23
2019-05-17T07:39:20.468Z,23.27
2019-05-17T07:44:26.267Z,21.13
2019-05-17T07:49:31.987Z,21.53
2019-05-17T07:54:39.774Z,20.70
2019-05-17T07:59:45.012Z,21.17
2019-05-17T08:04:50.694Z,20.33
2019-05-17T08:09:56.398Z,21.27
2019-05-17T08:15:02.165Z,22.33
2019-05-17T08:20:10.146Z,18.60
2019-05-17T08:25:17.131Z,19.57
2019-05-17T08:30:23.297Z,19.90
2019-05-17T08:35:30.407Z,19.60
2019-05-17T08:40:36.342Z,17.47
2019-05-17T08:45:42.232Z,20.30
2019-05-17T08:50:49.467Z,20.03
2019-05-17T08:55:55.378Z,18.93
2019-05-17T09:01:01.148Z,21.00
2019-05-17T09:06:06.834Z,17.40
2019-05-17T09:11:12.489Z,19.87
2019-05-17T09:16:19.565Z,19.20
2019-05-17T09:21:25.521Z,19.47
2019-05-17T09:26:31.326Z,20.17
2019-05-17T09:31:40.266Z,24.87
2019-05-17T09:36:46.213Z,25.67
2019-05-17T09:41:51.913Z,23.50
2019-05-17T09:46:59.516Z,23.83
2019-05-17T09:52:05.494Z,23.47
2019-05-17T09:57:11.507Z,24.90
2019-05-17T10:02:17.500Z,21.57
2019-05-17T10:07:23.311Z,19.87
2019-05-17T10:12:29.392Z,22.77
2019-05-17T10:17:35.173Z,20.30
2019-05-17T10:22:42.239Z,24.37
2019-05-17T10:27:49.809Z,23.67
2019-05-17T10:32:55.846Z,23.03
2019-05-17T10:38:01.540Z,28.10
2019-05-17T10:43:09.845Z,30.93
2019-05-17T10:48:15.039Z,30.23
2019-05-17T10:53:20.920Z,34.33
2019-05-17T10:58:26.872Z,38.10
2019-05-17T11:03:32.697Z,36.70
2019-05-17T11:08:38.390Z,39.73
2019-05-17T11:13:44.062Z,40.57
2019-05-17T11:18:49.807Z,37.13
2019-05-17T11:23:55.486Z,35.30
2019-05-17T11:29:01.211Z,35.97
2019-05-17T11:34:07.143Z,39.43
2019-05-17T11:39:13.026Z,35.50
2019-05-17T11:44:18.730Z,36.73
2019-05-17T11:49:24.536Z,42.03
2019-05-17T11:54:30.266Z,39.57
2019-05-17T11:59:36.183Z,41.03
2019-05-17T12:04:41.935Z,43.87
2019-05-17T12:09:47.633Z,41.13
2019-05-17T12:14:53.337Z,44.20
2019-05-17T12:19:59.081Z,41.17
2019-05-17T12:25:06.756Z,44.47
2019-05-17T12:30:12.994Z,45.27
2019-05-17T12:35:18.693Z,45.37
2019-05-17T12:40:25.922Z,38.60
2019-05-17T12:45:31.644Z,42.73
2019-05-17T12:50:37.476Z,37.33
2019-05-17T12:55:43.239Z,37.83
2019-05-17T13:00:49.189Z,44.73
2019-05-17T13:05:55.109Z,48.73
2019-05-17T13:11:01.033Z,50.33
2019-05-17T13:16:17.595Z,51.00
2019-05-17T13:21:14.449Z,49.43
2019-05-17T13:26:20.214Z,41.63
2019-05-17T13:31:25.992Z,45.23
2019-05-17T13:36:32.727Z,39.67
2019-05-17T13:41:38.633Z,38.77
2019-05-17T13:46:44.398Z,42.40
2019-05-17T13:51:50.084Z,36.07
2019-05-17T13:56:55.820Z,36.77
2019-05-17T14:02:01.510Z,33.30
2019-05-17T14:07:07.324Z,29.80
2019-05-17T14:12:13.039Z,35.70
2019-05-17T14:17:18.863Z,35.30
2019-05-17T14:22:24.674Z,28.70
2019-05-17T14:27:30.452Z,34.47
2019-05-17T14:32:36.249Z,34.43
2019-05-17T14:37:42.053Z,31.90
2019-05-17T14:42:47.818Z,30.53
2019-05-17T14:47:53.422Z,31.30
2019-05-17T14:52:59.198Z,29.10
2019-05-17T14:58:04.898Z,28.03
2019-05-17T15:03:10.498Z,23.77
2019-05-17T15:08:16.210Z,28.00
2019-05-17T15:13:21.900Z,27.03
2019-05-17T15:18:27.571Z,21.77
2019-05-17T15:23:33.691Z,24.80
2019-05-17T15:28:39.552Z,20.23
2019-05-17T15:33:45.623Z,23.33
2019-05-17T15:38:51.515Z,27.07
2019-05-17T15:43:57.180Z,17.77
2019-05-17T15:49:03.925Z,18.03
2019-05-17T15:54:09.964Z,17.23
2019-05-17T15:59:15.643Z,15.90
2019-05-17T16:04:21.396Z,25.60
2019-05-17T16:09:27.289Z,14.20
2019-05-17T16:14:33.111Z,13.80
2019-05-17T16:19:38.998Z,12.50
2019-05-17T16:24:45.880Z,13.83
2019-05-17T16:29:52.055Z,12.57
2019-05-17T16:34:57.806Z,13.50
2019-05-17T16:40:07.114Z,12.87
2019-05-17T16:45:14.864Z,13.73
2019-05-17T16:50:20.802Z,11.87
2019-05-17T16:55:26.591Z,12.07
2019-05-17T17:00:38.438Z,12.57
2019-05-17T17:05:44.131Z,14.50
2019-05-17T17:10:49.961Z,13.43
2019-05-17T17:15:55.756Z,13.43
2019-05-17T17:21:01.539Z,14.77
2019-05-17T17:26:07.406Z,14.97
2019-05-17T17:31:15.985Z,14.60
2019-05-17T17:36:21.829Z,13.87
2019-05-17T17:41:27.794Z,14.67
2019-05-17T17:46:33.522Z,13.80
2019-05-17T17:51:39.353Z,16.00
2019-05-17T17:56:45.102Z,14.87
2019-05-17T18:01:50.956Z,17.93
2019-05-17T18:06:56.848Z,18.43
2019-05-17T18:12:02.585Z,18.20
2019-05-17T18:17:08.794Z,19.87
2019-05-17T18:22:14.644Z,19.57
2019-05-17T18:27:20.301Z,18.23
2019-05-17T18:32:26.009Z,20.27
2019-05-17T18:37:31.861Z,19.43
2019-05-17T18:42:37.716Z,19.33
2019-05-17T18:47:43.790Z,19.27
2019-05-17T18:52:49.660Z,21.60
2019-05-17T18:57:55.539Z,18.50
2019-05-17T19:03:01.411Z,20.97
2019-05-17T19:08:07.119Z,20.23
2019-05-17T19:13:14.224Z,17.87
2019-05-17T19:18:19.934Z,19.53
2019-05-17T19:23:26.115Z,20.10
2019-05-17T19:28:31.882Z,17.13
2019-05-17T19:33:37.651Z,17.33
2019-05-17T19:38:43.468Z,19.40
2019-05-17T19:43:50.879Z,16.80
2019-05-17T19:48:56.587Z,18.50
2019-05-17T19:54:02.299Z,20.37
2019-05-17T19:59:07.970Z,19.00
2019-05-17T20:04:13.655Z,20.37
2019-05-17T20:09:19.333Z,17.53
2019-05-17T20:14:25.025Z,18.87
2019-05-17T20:19:30.838Z,20.47
2019-05-17T20:24:36.516Z,19.20
2019-05-17T20:29:42.362Z,19.53
2019-05-17T20:34:48.620Z,19.43
2019-05-17T20:39:54.232Z,19.23
2019-05-17T20:45:00.356Z,22.87
2019-05-17T20:50:09.852Z,20.33
2019-05-17T20:55:16.741Z,25.07
2019-05-17T21:00:22.509Z,25.07
2019-05-17T21:05:28.307Z,27.10
2019-05-17T21:10:34.330Z,27.73
2019-05-17T21:15:47.394Z,20.80
2019-05-17T21:20:47.814Z,25.07
2019-05-17T21:25:53.891Z,23.07
2019-05-17T21:30:59.693Z,22.67
2019-05-17T21:36:06.135Z,21.60
2019-05-17T21:41:11.914Z,24.37
2019-05-17T21:46:17.782Z,25.97
2019-05-17T21:51:23.698Z,29.70
2019-05-17T21:56:30.492Z,27.30
2019-05-17T22:01:36.419Z,27.70
2019-05-17T22:06:42.179Z,27.53
2019-05-17T22:11:49.604Z,27.27
2019-05-17T22:16:55.478Z,32.43
2019-05-17T22:22:01.583Z,29.83
2019-05-17T22:27:07.579Z,32.50
2019-05-17T22:32:13.257Z,34.37
2019-05-17T22:37:18.966Z,29.83
2019-05-17T22:42:24.676Z,33.80
2019-05-17T22:47:31.921Z,31.83
2019-05-17T22:52:37.574Z,33.87
2019-05-17T22:57:43.298Z,36.30
2019-05-17T23:02:48.977Z,35.43
2019-05-17T23:07:54.728Z,40.40
2019-05-17T23:13:00.406Z,35.43
2019-05-17T23:18:06.134Z,36.00
2019-05-17T23:23:15.242Z,38.17
2019-05-17T23:28:19.233Z,38.93
2019-05-17T23:33:24.827Z,38.17
2019-05-17T23:38:30.586Z,38.73
2019-05-17T23:43:36.297Z,36.83
2019-05-17T23:48:41.954Z,36.00
2019-05-17T23:53:47.602Z,37.03
2019-05-17T23:58:53.269Z,37.73
